Time,TemperatureF,DewpointF,PressureIn,WindDirection,WindDirectionDegrees,WindSpeedMPH,WindSpeedGustMPH,Humidity,HourlyPrecipIn,Conditions,Clouds,dailyrainin,SoftwareType,DateUTC
2013-02-27 00:21:00,32.0,9.0,30.22,North,0,0.0,-999.0,38,0.00,,,-99.99,,2013-02-27 08:21:00,
2013-02-27 00:31:00,32.0,9.0,30.22,North,0,0.0,-999.0,38,0.00,,,-99.99,,2013-02-27 08:31:00,
2013-02-27 00:41:00,32.0,9.0,30.22,North,0,0.0,-999.0,38,0.00,,,-99.99,,2013-02-27 08:41:00,
2013-02-27 00:52:00,32.0,9.0,30.22,North,0,0.0,-999.0,38,0.00,,,-99.99,,2013-02-27 08:52:00,
2013-02-27 01:21:00,31.0,9.0,30.23,North,0,0.0,-999.0,39,0.00,,,-99.99,,2013-02-27 09:21:00,
2013-02-27 01:32:00,31.0,9.0,30.23,North,0,0.0,-999.0,39,0.00,,,-99.99,,2013-02-27 09:32:00,
2013-02-27 01:41:00,31.0,9.0,30.23,North,0,0.0,-999.0,39,0.00,,,-99.99,,2013-02-27 09:41:00,
2013-02-27 01:51:00,31.0,9.0,30.23,North,0,0.0,-999.0,39,0.00,,,-99.99,,2013-02-27 09:51:00,
2013-02-27 02:21:00,31.0,10.0,30.23,North,0,0.0,-999.0,41,0.00,,,-99.99,,2013-02-27 10:21:00,
2013-02-27 02:32:00,31.0,10.0,30.23,North,0,0.0,-999.0,41,0.00,,,-99.99,,2013-02-27 10:32:00,
2013-02-27 02:42:00,31.0,10.0,30.23,North,0,0.0,-999.0,41,0.00,,,-99.99,,2013-02-27 10:42:00,
2013-02-27 02:52:00,31.0,10.0,30.23,North,0,0.0,-999.0,41,0.00,,,-99.99,,2013-02-27 10:52:00,
2013-02-27 03:22:00,32.0,9.0,30.23,North,0,0.0,-999.0,37,0.00,,,-99.99,,2013-02-27 11:22:00,
2013-02-27 03:32:00,32.0,9.0,30.23,North,0,0.0,-999.0,37,0.00,,,-99.99,,2013-02-27 11:32:00,
2013-02-27 03:41:00,32.0,9.0,30.23,North,0,0.0,-999.0,37,0.00,,,-99.99,,2013-02-27 11:41:00,
2013-02-27 03:52:00,32.0,9.0,30.23,North,0,0.0,-999.0,37,0.00,,,-99.99,,2013-02-27 11:52:00,
2013-02-27 04:22:00,32.0,8.0,30.25,North,0,0.0,-999.0,36,0.00,,,-99.99,,2013-02-27 12:22:00,
2013-02-27 04:32:00,32.0,8.0,30.25,North,0,0.0,-999.0,36,0.00,,,-99.99,,2013-02-27 12:32:00,
2013-02-27 04:42:00,32.0,8.0,30.25,North,0,0.0,-999.0,36,0.00,,,-99.99,,2013-02-27 12:42:00,
2013-02-27 04:52:00,32.0,8.0,30.25,North,0,0.0,-999.0,36,0.00,,,-99.99,,2013-02-27 12:52:00,
2013-02-27 05:22:00,30.0,10.0,30.26,North,0,0.0,-999.0,42,0.00,,,-99.99,,2013-02-27 13:22:00,
2013-02-27 05:32:00,30.0,10.0,30.26,North,0,0.0,-999.0,42,0.00,,,-99.99,,2013-02-27 13:32:00,
2013-02-27 05:42:00,30.0,10.0,30.26,North,0,0.0,-999.0,42,0.00,,,-99.99,,2013-02-27 13:42:00,
2013-02-27 05:52:00,30.0,10.0,30.26,North,0,0.0,-999.0,42,0.00,,,-99.99,,2013-02-27 13:52:00,
2013-02-27 06:21:00,29.0,9.0,30.27,North,0,0.0,-999.0,42,0.00,,,-99.99,,2013-02-27 14:21:00,
2013-02-27 06:32:00,29.0,9.0,30.27,North,0,0.0,-999.0,42,0.00,,,-99.99,,2013-02-27 14:32:00,
2013-02-27 06:42:00,29.0,9.0,30.27,North,0,0.0,-999.0,42,0.00,,,-99.99,,2013-02-27 14:42:00,
2013-02-27 06:52:00,29.0,9.0,30.27,North,0,0.0,-999.0,42,0.00,,,-99.99,,2013-02-27 14:52:00,
2013-02-27 07:22:00,31.0,10.0,30.29,North,0,0.0,-999.0,41,0.00,,,-99.99,,2013-02-27 15:22:00,
2013-02-27 07:32:00,31.0,10.0,30.29,North,0,0.0,-999.0,41,0.00,,,-99.99,,2013-02-27 15:32:00,
2013-02-27 07:42:00,31.0,10.0,30.29,North,0,0.0,-999.0,41,0.00,,,-99.99,,2013-02-27 15:42:00,
2013-02-27 07:52:00,31.0,10.0,30.29,North,0,0.0,-999.0,41,0.00,,,-99.99,,2013-02-27 15:52:00,
2013-02-27 08:22:00,39.0,9.0,30.31,North,0,0.0,-999.0,29,0.00,,,-99.99,,2013-02-27 16:22:00,
2013-02-27 08:32:00,39.0,9.0,30.31,North,0,0.0,-999.0,29,0.00,,,-99.99,,2013-02-27 16:32:00,
2013-02-27 08:42:00,39.0,9.0,30.31,North,0,0.0,-999.0,29,0.00,,,-99.99,,2013-02-27 16:42:00,
2013-02-27 08:52:00,39.0,9.0,30.31,North,0,0.0,-999.0,29,0.00,,,-99.99,,2013-02-27 16:52:00,
2013-02-27 09:21:00,44.0,14.0,30.31,North,0,0.0,-999.0,29,0.00,,,-99.99,,2013-02-27 17:21:00,
2013-02-27 09:32:00,44.0,14.0,30.31,North,0,0.0,-999.0,29,0.00,,,-99.99,,2013-02-27 17:32:00,
2013-02-27 09:41:00,44.0,14.0,30.31,North,0,0.0,-999.0,29,0.00,,,-99.99,,2013-02-27 17:41:00,
2013-02-27 09:52:00,44.0,14.0,30.31,North,0,0.0,-999.0,29,0.00,,,-99.99,,2013-02-27 17:52:00,
2013-02-27 10:22:00,46.0,11.0,30.31,North,0,0.0,-999.0,24,0.00,,,-99.99,,2013-02-27 18:22:00,
2013-02-27 10:32:00,46.0,11.0,30.31,North,0,0.0,-999.0,24,0.00,,,-99.99,,2013-02-27 18:32:00,
2013-02-27 10:42:00,46.0,11.0,30.31,North,0,0.0,-999.0,24,0.00,,,-99.99,,2013-02-27 18:42:00,
2013-02-27 10:51:00,46.0,11.0,30.31,North,0,0.0,-999.0,24,0.00,,,-99.99,,2013-02-27 18:51:00,
2013-02-27 11:21:00,49.0,13.0,30.32,SSE,160,2.0,-999.0,23,0.00,,,-99.99,,2013-02-27 19:21:00,
2013-02-27 11:32:00,49.0,13.0,30.32,SSE,160,2.0,-999.0,23,0.00,,,-99.99,,2013-02-27 19:32:00,
2013-02-27 11:42:00,49.0,13.0,30.32,SSE,160,2.0,-999.0,23,0.00,,,-99.99,,2013-02-27 19:42:00,
2013-02-27 11:51:00,49.0,13.0,30.32,SSE,160,2.0,-999.0,23,0.00,,,-99.99,,2013-02-27 19:51:00,
2013-02-27 12:21:00,48.0,12.0,30.32,North,0,0.0,-999.0,23,0.00,,,-99.99,,2013-02-27 20:21:00,
2013-02-27 12:32:00,48.0,12.0,30.32,North,0,0.0,-999.0,23,0.00,,,-99.99,,2013-02-27 20:32:00,
2013-02-27 12:42:00,48.0,12.0,30.32,North,0,0.0,-999.0,23,0.00,,,-99.99,,2013-02-27 20:42:00,
2013-02-27 12:52:00,48.0,12.0,30.32,North,0,0.0,-999.0,23,0.00,,,-99.99,,2013-02-27 20:52:00,
2013-02-27 13:21:00,49.0,11.0,30.31,East,100,1.0,-999.0,21,0.00,,,-99.99,,2013-02-27 21:21:00,
2013-02-27 13:31:00,49.0,11.0,30.31,East,100,1.0,-999.0,21,0.00,,,-99.99,,2013-02-27 21:31:00,
2013-02-27 13:42:00,49.0,11.0,30.31,East,100,1.0,-999.0,21,0.00,,,-99.99,,2013-02-27 21:42:00,
2013-02-27 13:51:00,49.0,11.0,30.31,East,100,1.0,-999.0,21,0.00,,,-99.99,,2013-02-27 21:51:00,
2013-02-27 14:21:00,50.0,13.0,30.30,North,0,0.0,-999.0,22,0.00,,,-99.99,,2013-02-27 22:21:00,
2013-02-27 14:31:00,50.0,13.0,30.30,North,0,0.0,-999.0,22,0.00,,,-99.99,,2013-02-27 22:31:00,
2013-02-27 14:41:00,50.0,13.0,30.30,North,0,0.0,-999.0,22,0.00,,,-99.99,,2013-02-27 22:41:00,
2013-02-27 14:51:00,50.0,13.0,30.30,North,0,0.0,-999.0,22,0.00,,,-99.99,,2013-02-27 22:51:00,
2013-02-27 15:21:00,49.0,7.0,30.29,ESE,120,2.0,-999.0,18,0.00,,,-99.99,,2013-02-27 23:21:00,
2013-02-27 15:32:00,49.0,7.0,30.29,ESE,120,2.0,-999.0,18,0.00,,,-99.99,,2013-02-27 23:32:00,
2013-02-27 15:42:00,49.0,7.0,30.29,ESE,120,2.0,-999.0,18,0.00,,,-99.99,,2013-02-27 23:42:00,
2013-02-27 15:52:00,49.0,7.0,30.29,ESE,120,2.0,-999.0,18,0.00,,,-99.99,,2013-02-27 23:52:00,
2013-02-27 16:21:00,48.0,4.0,30.29,ESE,120,3.0,-999.0,16,0.00,,,-99.99,,2013-02-28 00:21:00,
2013-02-27 16:32:00,48.0,4.0,30.29,ESE,120,3.0,-999.0,16,0.00,,,-99.99,,2013-02-28 00:32:00,
2013-02-27 16:42:00,48.0,4.0,30.29,ESE,120,3.0,-999.0,16,0.00,,,-99.99,,2013-02-28 00:42:00,
2013-02-27 16:51:00,48.0,4.0,30.29,ESE,120,3.0,-999.0,16,0.00,,,-99.99,,2013-02-28 00:51:00,
2013-02-27 17:21:00,46.0,5.0,30.30,North,0,0.0,-999.0,18,0.00,,,-99.99,,2013-02-28 01:21:00,
2013-02-27 17:31:00,46.0,5.0,30.30,North,0,0.0,-999.0,18,0.00,,,-99.99,,2013-02-28 01:31:00,
2013-02-27 17:41:00,46.0,5.0,30.30,North,0,0.0,-999.0,18,0.00,,,-99.99,,2013-02-28 01:41:00,
2013-02-27 17:51:00,46.0,5.0,30.30,North,0,0.0,-999.0,18,0.00,,,-99.99,,2013-02-28 01:51:00,
2013-02-27 18:22:00,41.0,5.0,30.32,North,0,0.0,-999.0,22,0.00,,,-99.99,,2013-02-28 02:22:00,
2013-02-27 18:31:00,41.0,5.0,30.32,North,0,0.0,-999.0,22,0.00,,,-99.99,,2013-02-28 02:31:00,
2013-02-27 18:41:00,41.0,5.0,30.32,North,0,0.0,-999.0,22,0.00,,,-99.99,,2013-02-28 02:41:00,
2013-02-27 18:51:00,41.0,5.0,30.32,North,0,0.0,-999.0,22,0.00,,,-99.99,,2013-02-28 02:51:00,
2013-02-27 19:21:00,40.0,4.0,30.32,North,0,0.0,-999.0,22,0.00,,,-99.99,,2013-02-28 03:21:00,
2013-02-27 19:31:00,40.0,4.0,30.32,North,0,0.0,-999.0,22,0.00,,,-99.99,,2013-02-28 03:31:00,
2013-02-27 19:41:00,40.0,4.0,30.32,North,0,0.0,-999.0,22,0.00,,,-99.99,,2013-02-28 03:41:00,
2013-02-27 19:51:00,40.0,4.0,30.32,North,0,0.0,-999.0,22,0.00,,,-99.99,,2013-02-28 03:51:00,
2013-02-27 20:21:00,38.0,5.0,30.34,North,0,0.0,-999.0,25,0.00,,,-99.99,,2013-02-28 04:21:00,
2013-02-27 20:31:00,38.0,5.0,30.34,North,0,0.0,-999.0,25,0.00,,,-99.99,,2013-02-28 04:31:00,
2013-02-27 20:41:00,38.0,5.0,30.34,North,0,0.0,-999.0,25,0.00,,,-99.99,,2013-02-28 04:41:00,
2013-02-27 20:51:00,38.0,5.0,30.34,North,0,0.0,-999.0,25,0.00,,,-99.99,,2013-02-28 04:51:00,
2013-02-27 22:22:00,34.0,7.0,30.39,North,0,0.0,-999.0,32,0.00,,,-99.99,,2013-02-28 06:22:00,
2013-02-27 22:32:00,34.0,7.0,30.39,North,0,0.0,-999.0,32,0.00,,,-99.99,,2013-02-28 06:32:00,
2013-02-27 22:42:00,34.0,7.0,30.39,North,0,0.0,-999.0,32,0.00,,,-99.99,,2013-02-28 06:42:00,
2013-02-27 22:51:00,34.0,7.0,30.39,North,0,0.0,-999.0,32,0.00,,,-99.99,,2013-02-28 06:51:00,
2013-02-27 23:21:00,34.0,4.0,30.38,North,0,0.0,-999.0,28,0.00,,,-99.99,,2013-02-28 07:21:00,
2013-02-27 23:31:00,34.0,4.0,30.38,North,0,0.0,-999.0,28,0.00,,,-99.99,,2013-02-28 07:31:00,
2013-02-27 23:41:00,34.0,4.0,30.38,North,0,0.0,-999.0,28,0.00,,,-99.99,,2013-02-28 07:41:00,
2013-02-27 23:51:00,34.0,4.0,30.38,North,0,0.0,-999.0,28,0.00,,,-99.99,,2013-02-28 07:51:00,